createdAt,value
2023-04-26T00:02:27.443Z,99470.75
2023-04-26T00:05:02.255Z,99482.47
2023-04-26T00:07:37.973Z,99477.22
2023-04-26T00:10:12.176Z,99482.72
2023-04-26T00:12:45.160Z,99482.22
2023-04-26T00:15:17.997Z,99485.47
2023-04-26T00:17:52.191Z,99471.78
2023-04-26T00:20:25.098Z,99485.69
2023-04-26T00:22:58.219Z,99483.59
2023-04-26T00:25:31.210Z,99495.63
2023-04-26T00:28:04.052Z,99499.63
2023-04-26T00:30:37.703Z,99493.94
2023-04-26T00:33:11.863Z,99489.06
2023-04-26T00:35:44.641Z,99496.44
2023-04-26T00:38:17.416Z,99501.84
2023-04-26T00:40:50.729Z,99501.16
2023-04-26T00:43:23.544Z,99500.53
2023-04-26T00:45:56.481Z,99499.84
2023-04-26T00:48:31.510Z,99499.34
2023-04-26T00:51:05.594Z,99498.88
2023-04-26T00:53:38.517Z,99508.25
2023-04-26T00:56:12.714Z,99505.03
2023-04-26T00:58:46.362Z,99508.16
2023-04-26T01:01:19.727Z,99511.34
2023-04-26T01:03:54.165Z,99511.34
2023-04-26T01:06:29.507Z,99516.75
2023-04-26T01:09:05.116Z,99511.78
2023-04-26T01:11:38.778Z,99511.22
2023-04-26T01:14:12.928Z,99511.59
2023-04-26T01:16:47.631Z,99519.78
2023-04-26T01:19:22.192Z,99514.75
2023-04-26T01:21:55.003Z,99519.50
2023-04-26T01:24:29.391Z,99521.50
2023-04-26T01:27:04.143Z,99531.56
2023-04-26T01:29:37.183Z,99522.06
2023-04-26T01:32:10.941Z,99528.53
2023-04-26T01:34:43.766Z,99534.97
2023-04-26T01:37:17.082Z,99533.47
2023-04-26T01:39:51.520Z,99533.78
2023-04-26T01:42:26.032Z,99535.75
2023-04-26T01:44:58.897Z,99538.59
2023-04-26T01:47:31.732Z,99535.34
2023-04-26T01:50:04.858Z,99547.16
2023-04-26T01:52:37.661Z,99545.69
2023-04-26T01:55:11.964Z,99553.88
2023-04-26T01:57:46.686Z,99550.63
2023-04-26T02:00:20.610Z,99559.81
2023-04-26T02:02:55.898Z,99555.72
2023-04-26T02:05:29.462Z,99554.41
2023-04-26T02:08:02.580Z,99555.50
2023-04-26T02:10:37.021Z,99553.00
2023-04-26T02:13:09.935Z,99549.72
2023-04-26T02:15:42.802Z,99554.47
2023-04-26T02:18:15.817Z,99565.44
2023-04-26T02:20:48.790Z,99563.13
2023-04-26T02:23:21.603Z,99563.31
2023-04-26T02:25:56.111Z,99561.75
2023-04-26T02:28:29.155Z,99564.53
2023-04-26T02:31:03.562Z,99558.53
2023-04-26T02:33:36.937Z,99556.97
2023-04-26T02:36:10.113Z,99555.38
2023-04-26T02:38:42.918Z,99553.81
2023-04-26T02:41:17.134Z,99559.34
2023-04-26T02:43:49.959Z,99556.84
2023-04-26T02:46:22.936Z,99567.63
2023-04-26T02:48:55.836Z,99556.25
2023-04-26T02:51:29.096Z,99557.41
2023-04-26T02:54:03.789Z,99561.97
2023-04-26T02:56:39.558Z,99555.09
2023-04-26T02:59:12.394Z,99558.75
2023-04-26T03:01:45.300Z,99550.97
2023-04-26T03:04:18.415Z,99559.06
2023-04-26T03:06:51.731Z,99559.19
2023-04-26T03:09:24.752Z,99556.69
2023-04-26T03:11:59.617Z,99563.00
2023-04-26T03:14:33.542Z,99568.34
2023-04-26T03:17:06.564Z,99566.69
2023-04-26T03:19:39.955Z,99570.34
2023-04-26T03:22:16.131Z,99572.19
2023-04-26T03:24:49.161Z,99567.06
2023-04-26T03:27:23.810Z,99576.00
2023-04-26T03:29:56.938Z,99577.00
2023-04-26T03:32:29.919Z,99579.66
2023-04-26T03:35:02.825Z,99588.56
2023-04-26T03:37:35.782Z,99591.19
2023-04-26T03:40:12.753Z,99589.50
2023-04-26T03:42:46.879Z,99597.19
2023-04-26T03:45:21.257Z,99591.56
2023-04-26T03:47:54.197Z,99589.94
2023-04-26T03:50:27.393Z,99595.34
2023-04-26T03:53:00.297Z,99591.81
2023-04-26T03:55:33.149Z,99595.38
2023-04-26T03:58:08.201Z,99597.19
2023-04-26T04:00:42.317Z,99590.16
2023-04-26T04:03:15.075Z,99596.84
2023-04-26T04:05:48.002Z,99603.31
2023-04-26T04:08:20.827Z,99609.53
2023-04-26T04:10:53.654Z,99606.81
2023-04-26T04:13:27.857Z,99607.63
2023-04-26T04:16:01.482Z,99607.53
2023-04-26T04:18:34.435Z,99614.34
2023-04-26T04:21:07.364Z,99614.16
2023-04-26T04:23:40.349Z,99611.31
2023-04-26T04:26:16.262Z,99613.72
2023-04-26T04:28:52.085Z,99617.91
2023-04-26T04:31:26.058Z,99612.41
2023-04-26T04:33:59.185Z,99611.28
2023-04-26T04:36:32.418Z,99611.91
2023-04-26T04:39:06.004Z,99618.59
2023-04-26T04:41:40.142Z,99613.94
2023-04-26T04:44:15.688Z,99622.38
2023-04-26T04:46:49.510Z,99628.28
2023-04-26T04:49:22.509Z,99631.63
2023-04-26T04:51:55.584Z,99629.53
2023-04-26T04:54:28.431Z,99635.41
2023-04-26T04:57:01.880Z,99636.09
2023-04-26T04:59:36.470Z,99641.97
2023-04-26T05:02:10.432Z,99640.81
2023-04-26T05:04:43.657Z,99631.66
2023-04-26T05:07:18.499Z,99640.06
2023-04-26T05:09:51.527Z,99636.22
2023-04-26T05:12:24.691Z,99639.34
2023-04-26T05:14:59.057Z,99642.56
2023-04-26T05:17:32.831Z,99630.59
2023-04-26T05:20:11.277Z,99637.13
2023-04-26T05:22:44.498Z,99638.34
2023-04-26T05:25:19.266Z,99636.91
2023-04-26T05:27:56.057Z,99641.78
2023-04-26T05:31:02.848Z,99641.16
2023-04-26T05:33:54.142Z,99644.16
2023-04-26T05:36:35.699Z,99644.66
2023-04-26T05:39:08.908Z,99643.56
2023-04-26T05:41:42.429Z,99643.06
2023-04-26T05:44:15.881Z,99649.69
2023-04-26T05:46:50.669Z,99644.75
2023-04-26T05:49:23.499Z,99646.84
2023-04-26T05:51:56.828Z,99648.22
2023-04-26T05:54:29.753Z,99648.59
2023-04-26T05:57:03.456Z,99639.94
2023-04-26T05:59:37.453Z,99642.09
2023-04-26T06:02:12.623Z,99648.97
2023-04-26T06:04:46.395Z,99649.81
2023-04-26T06:07:22.281Z,99657.38
2023-04-26T06:09:55.153Z,99656.06
2023-04-26T06:12:31.537Z,99650.84
2023-04-26T06:15:05.522Z,99649.84
2023-04-26T06:17:41.653Z,99653.69
2023-04-26T06:20:15.477Z,99655.66
2023-04-26T06:22:49.167Z,99660.25
2023-04-26T06:25:22.249Z,99656.31
2023-04-26T06:27:55.145Z,99657.13
2023-04-26T06:30:28.084Z,99656.91
2023-04-26T06:33:02.597Z,99657.72
2023-04-26T06:35:41.404Z,99661.13
2023-04-26T06:38:15.455Z,99661.22
2023-04-26T06:40:48.384Z,99649.03
2023-04-26T06:43:21.531Z,99657.94
2023-04-26T06:46:12.789Z,99655.72
2023-04-26T06:48:47.223Z,99654.03
2023-04-26T06:51:20.024Z,99660.06
2023-04-26T06:53:53.629Z,99661.72
2023-04-26T06:56:26.447Z,99664.25
2023-04-26T06:59:01.427Z,99664.03
2023-04-26T07:01:35.284Z,99667.06
2023-04-26T07:04:10.789Z,99666.25
2023-04-26T07:06:43.902Z,99664.81
2023-04-26T07:09:16.847Z,99669.59
2023-04-26T07:11:49.757Z,99671.88
2023-04-26T07:14:22.733Z,99673.19
2023-04-26T07:16:55.535Z,99678.03
2023-04-26T07:19:29.707Z,99672.13
2023-04-26T07:22:02.648Z,99683.06
2023-04-26T07:24:35.513Z,99674.16
2023-04-26T07:27:08.350Z,99680.19
2023-04-26T07:29:41.177Z,99674.56
2023-04-26T07:32:14.268Z,99676.44
2023-04-26T07:34:48.459Z,99676.94
2023-04-26T07:37:21.376Z,99682.41
2023-04-26T07:39:54.250Z,99677.38
2023-04-26T07:42:27.117Z,99681.56
2023-04-26T07:44:59.927Z,99693.19
2023-04-26T07:47:32.808Z,99688.78
2023-04-26T07:50:08.623Z,99689.16
2023-04-26T07:52:46.824Z,99682.66
2023-04-26T07:55:19.876Z,99688.47
2023-04-26T07:57:52.776Z,99683.41
2023-04-26T08:00:25.803Z,99694.97
2023-04-26T08:02:58.773Z,99708.22
2023-04-26T08:05:33.404Z,99700.47
2023-04-26T08:08:06.731Z,99699.44
2023-04-26T08:10:41.735Z,99704.88
2023-04-26T08:13:14.572Z,99712.31
2023-04-26T08:15:47.627Z,99719.50
2023-04-26T08:18:20.473Z,99707.97
2023-04-26T08:20:55.327Z,99706.06
2023-04-26T08:23:28.360Z,99705.78
2023-04-26T08:26:01.470Z,99698.38
2023-04-26T08:28:35.785Z,99700.59
2023-04-26T08:31:10.164Z,99712.72
2023-04-26T08:33:43.283Z,99712.09
2023-04-26T08:36:17.458Z,99717.28
2023-04-26T08:38:50.466Z,99720.72
2023-04-26T08:41:24.901Z,99716.72
2023-04-26T08:43:58.766Z,99716.38
2023-04-26T08:46:37.620Z,99707.31
2023-04-26T08:49:19.897Z,99708.78
2023-04-26T08:51:55.710Z,99719.09
2023-04-26T08:54:29.647Z,99725.00
2023-04-26T08:57:03.195Z,99725.28
2023-04-26T08:59:38.061Z,99735.84
2023-04-26T09:02:12.449Z,99742.13
2023-04-26T09:04:46.892Z,99739.28
2023-04-26T09:07:23.316Z,99737.91
2023-04-26T09:09:58.839Z,99727.78
2023-04-26T09:12:31.881Z,99729.69
2023-04-26T09:15:07.209Z,99724.22
2023-04-26T09:17:42.089Z,99726.44
2023-04-26T09:20:23.343Z,99717.63
2023-04-26T09:23:07.320Z,99712.72
2023-04-26T09:25:40.313Z,99724.50
2023-04-26T09:28:23.537Z,99735.44
2023-04-26T09:30:56.419Z,99734.75
2023-04-26T09:33:29.264Z,99741.41
2023-04-26T09:36:12.977Z,99743.03
2023-04-26T09:38:47.148Z,99752.75
2023-04-26T09:41:20.025Z,99748.22
2023-04-26T09:43:53.824Z,99739.03
2023-04-26T09:46:26.778Z,99731.25
2023-04-26T09:49:03.716Z,99726.88
2023-04-26T09:51:36.707Z,99732.44
2023-04-26T09:54:10.942Z,99740.16
2023-04-26T09:56:59.892Z,99746.63
2023-04-26T09:59:41.038Z,99742.94
2023-04-26T10:02:19.338Z,99751.50
2023-04-26T10:04:53.971Z,99740.78
2023-04-26T10:07:27.222Z,99758.31
2023-04-26T10:10:02.138Z,99764.56
2023-04-26T10:12:35.689Z,99760.00
2023-04-26T10:15:10.215Z,99759.69
2023-04-26T10:17:43.187Z,99755.78
2023-04-26T10:20:18.814Z,99750.59
2023-04-26T10:22:55.045Z,99759.50
2023-04-26T10:25:37.577Z,99740.22
2023-04-26T10:28:10.774Z,99762.09
2023-04-26T10:30:56.442Z,99748.63
2023-04-26T10:33:29.363Z,99758.94
2023-04-26T10:36:08.095Z,99751.03
2023-04-26T10:38:42.989Z,99746.13
2023-04-26T10:41:35.202Z,99761.28
2023-04-26T10:44:40.143Z,99770.19
2023-04-26T10:47:25.099Z,99753.25
2023-04-26T10:50:09.296Z,99751.41
2023-04-26T10:53:06.891Z,99762.50
2023-04-26T10:55:39.998Z,99763.22
2023-04-26T10:58:31.162Z,99764.22
2023-04-26T11:01:08.344Z,99764.59
2023-04-26T11:03:42.515Z,99764.03
2023-04-26T11:06:17.469Z,99772.09
2023-04-26T11:08:50.535Z,99768.09
2023-04-26T11:11:29.810Z,99761.69
2023-04-26T11:14:04.641Z,99770.56
2023-04-26T11:16:38.405Z,99783.56
2023-04-26T11:19:11.349Z,99784.34
2023-04-26T11:21:44.222Z,99785.94
2023-04-26T11:24:17.213Z,99792.50
2023-04-26T11:26:52.898Z,99785.63
2023-04-26T11:29:27.433Z,99787.44
2023-04-26T11:32:01.430Z,99782.41
2023-04-26T11:34:35.233Z,99790.19
2023-04-26T11:37:09.090Z,99803.88
2023-04-26T11:39:42.034Z,99799.56
2023-04-26T11:42:14.916Z,99804.59
2023-04-26T11:44:52.576Z,99802.84
2023-04-26T11:47:30.686Z,99807.94
2023-04-26T11:50:04.378Z,99810.63
2023-04-26T11:52:37.193Z,99817.50
2023-04-26T11:55:10.953Z,99814.88
2023-04-26T11:57:43.648Z,99817.56
2023-04-26T12:00:20.145Z,99818.59
2023-04-26T12:02:53.764Z,99826.38
2023-04-26T12:05:27.602Z,99826.84
2023-04-26T12:08:01.514Z,99836.78
2023-04-26T12:10:37.096Z,99827.22
2023-04-26T12:13:09.961Z,99825.19
2023-04-26T12:15:44.173Z,99810.00
2023-04-26T12:18:17.383Z,99819.97
2023-04-26T12:20:51.766Z,99817.50
2023-04-26T12:23:24.604Z,99811.69
2023-04-26T12:26:02.015Z,99806.00
2023-04-26T12:28:34.995Z,99816.16
2023-04-26T12:31:09.581Z,99823.34
2023-04-26T12:33:42.587Z,99820.56
2023-04-26T12:36:15.557Z,99828.91
2023-04-26T12:38:48.411Z,99823.72
2023-04-26T12:41:21.715Z,99835.81
2023-04-26T12:43:54.616Z,99822.72
2023-04-26T12:46:28.824Z,99828.09
2023-04-26T12:49:01.722Z,99835.84
2023-04-26T12:51:34.846Z,99835.09
2023-04-26T12:54:07.808Z,99834.50
2023-04-26T12:56:44.036Z,99836.66
2023-04-26T12:59:17.407Z,99853.72
2023-04-26T13:01:51.732Z,99839.03
2023-04-26T13:04:24.898Z,99844.22
2023-04-26T13:06:58.360Z,99836.00
2023-04-26T13:09:31.224Z,99834.41
2023-04-26T13:12:04.264Z,99833.72
2023-04-26T13:14:41.160Z,99836.47
2023-04-26T13:17:15.812Z,99847.88
2023-04-26T13:19:49.152Z,99849.84
2023-04-26T13:22:22.426Z,99856.38
2023-04-26T13:24:55.305Z,99847.28
2023-04-26T13:27:31.131Z,99850.03
2023-04-26T13:30:04.970Z,99849.00
2023-04-26T13:32:39.310Z,99860.16
2023-04-26T13:35:13.088Z,99859.78
2023-04-26T13:37:46.414Z,99857.47
2023-04-26T13:40:26.483Z,99861.97
2023-04-26T13:42:59.487Z,99860.09
2023-04-26T13:45:35.859Z,99868.69
2023-04-26T13:48:10.197Z,99858.75
2023-04-26T13:50:43.103Z,99865.25
2023-04-26T13:53:16.296Z,99871.34
2023-04-26T13:55:49.183Z,99873.47
2023-04-26T13:58:22.096Z,99868.41
2023-04-26T14:00:54.923Z,99871.38
2023-04-26T14:03:29.450Z,99868.22
2023-04-26T14:06:02.902Z,99866.09
2023-04-26T14:08:35.782Z,99881.44
2023-04-26T14:11:09.245Z,99883.44
2023-04-26T14:13:42.584Z,99877.59
2023-04-26T14:16:15.591Z,99887.59
2023-04-26T14:18:49.920Z,99883.47
2023-04-26T14:21:22.864Z,99878.56
2023-04-26T14:23:56.455Z,99880.56
2023-04-26T14:26:29.309Z,99891.56
2023-04-26T14:29:02.510Z,99889.22
2023-04-26T14:31:35.625Z,99900.78
2023-04-26T14:34:09.982Z,99902.97
2023-04-26T14:36:42.980Z,99907.72
2023-04-26T14:39:16.170Z,99907.06
2023-04-26T14:41:49.289Z,99911.44
2023-04-26T14:44:24.133Z,99911.44
2023-04-26T14:46:57.117Z,99910.50
2023-04-26T14:49:33.919Z,99916.69
2023-04-26T14:52:06.917Z,99923.78
2023-04-26T14:54:39.910Z,99916.59
2023-04-26T14:57:12.914Z,99914.81
2023-04-26T14:59:45.748Z,99911.75
2023-04-26T15:02:18.693Z,99912.19
2023-04-26T15:04:53.286Z,99916.25
2023-04-26T15:07:31.820Z,99916.75
2023-04-26T15:10:07.836Z,99926.25
2023-04-26T15:12:40.778Z,99924.94
2023-04-26T15:15:14.299Z,99929.16
2023-04-26T15:17:49.930Z,99921.72
2023-04-26T15:20:24.504Z,99918.50
2023-04-26T15:23:01.381Z,99918.22
2023-04-26T15:25:38.564Z,99916.50
2023-04-26T15:28:11.618Z,99924.72
2023-04-26T15:30:44.905Z,99927.75
2023-04-26T15:33:18.543Z,99927.44
2023-04-26T15:35:53.147Z,99935.16
2023-04-26T15:38:26.080Z,99936.22
2023-04-26T15:40:59.006Z,99935.50
2023-04-26T15:43:31.858Z,99929.38
2023-04-26T15:46:04.968Z,99933.97
2023-04-26T15:48:37.851Z,99934.81
2023-04-26T15:51:12.078Z,99935.00
2023-04-26T15:53:44.891Z,99941.66
2023-04-26T15:56:18.495Z,99941.09
2023-04-26T15:58:51.661Z,99938.59
2023-04-26T16:01:24.640Z,99944.25
2023-04-26T16:03:57.722Z,99954.16
2023-04-26T16:06:32.425Z,99943.72
2023-04-26T16:09:17.166Z,99947.53
2023-04-26T16:11:57.450Z,99949.50
2023-04-26T16:14:31.295Z,99956.66
2023-04-26T16:17:05.199Z,99953.72
2023-04-26T16:19:38.501Z,99952.88
2023-04-26T16:22:12.803Z,99960.47
2023-04-26T16:24:45.920Z,99951.88
2023-04-26T16:27:22.479Z,99955.09
2023-04-26T16:29:55.667Z,99958.25
2023-04-26T16:32:30.594Z,99962.19
2023-04-26T16:35:04.277Z,99952.03
2023-04-26T16:37:42.394Z,99956.03
2023-04-26T16:40:15.503Z,99951.97
2023-04-26T16:42:48.349Z,99962.03
2023-04-26T16:45:21.475Z,99963.16
2023-04-26T16:47:54.386Z,99960.72
2023-04-26T16:50:27.586Z,99963.63
2023-04-26T16:53:02.156Z,99969.44
2023-04-26T16:55:35.030Z,99971.72
2023-04-26T16:58:09.624Z,99975.66
2023-04-26T17:00:44.605Z,99976.16
2023-04-26T17:03:18.182Z,99967.75
2023-04-26T17:05:51.115Z,99974.56
2023-04-26T17:08:27.173Z,99981.47
2023-04-26T17:11:00.022Z,99977.22
2023-04-26T17:13:33.405Z,99989.06
2023-04-26T17:16:07.115Z,99986.84
2023-04-26T17:18:39.866Z,99983.06
2023-04-26T17:21:12.771Z,99985.59
2023-04-26T17:23:46.962Z,99987.78
2023-04-26T17:26:19.812Z,99997.81
2023-04-26T17:28:52.943Z,99997.97
2023-04-26T17:31:25.949Z,99999.06
2023-04-26T17:34:02.674Z,100000.91
2023-04-26T17:36:37.570Z,100001.13
2023-04-26T17:39:12.069Z,100004.81
2023-04-26T17:41:45.196Z,100001.25
2023-04-26T17:44:18.227Z,100000.34
2023-04-26T17:46:51.140Z,100000.25
2023-04-26T17:49:25.741Z,100009.19
2023-04-26T17:51:58.689Z,100011.16
2023-04-26T17:54:32.922Z,100006.84
2023-04-26T17:57:07.772Z,100009.72
2023-04-26T17:59:40.774Z,100016.03
2023-04-26T18:02:13.815Z,100020.59
2023-04-26T18:04:47.639Z,100019.75
2023-04-26T18:07:22.853Z,100018.91
2023-04-26T18:09:57.094Z,100026.06
2023-04-26T18:12:30.843Z,100025.97
2023-04-26T18:15:03.845Z,100031.75
2023-04-26T18:17:37.196Z,100031.44
2023-04-26T18:20:11.284Z,100039.59
2023-04-26T18:22:44.299Z,100037.25
2023-04-26T18:25:18.617Z,100043.81
2023-04-26T18:27:51.524Z,100045.00
2023-04-26T18:30:24.382Z,100051.63
2023-04-26T18:32:57.301Z,100060.78
2023-04-26T18:35:30.147Z,100062.78
2023-04-26T18:38:04.030Z,100061.25
2023-04-26T18:40:38.081Z,100070.59
2023-04-26T18:43:11.273Z,100065.84
2023-04-26T18:45:44.267Z,100072.16
2023-04-26T18:48:17.373Z,100070.44
2023-04-26T18:50:51.166Z,100073.16
2023-04-26T18:53:24.748Z,100077.69
2023-04-26T18:56:01.655Z,100079.59
2023-04-26T18:58:34.579Z,100074.34
2023-04-26T19:01:07.963Z,100077.94
2023-04-26T19:03:41.918Z,100083.28
2023-04-26T19:06:19.279Z,100084.13
2023-04-26T19:08:52.569Z,100079.66
2023-04-26T19:11:26.852Z,100085.00
2023-04-26T19:14:02.421Z,100080.63
2023-04-26T19:16:35.886Z,100086.00
2023-04-26T19:19:08.769Z,100086.13
2023-04-26T19:21:41.893Z,100088.91
2023-04-26T19:24:14.726Z,100086.38
2023-04-26T19:26:48.994Z,100092.78
2023-04-26T19:29:21.893Z,100088.53
2023-04-26T19:31:59.372Z,100090.50
2023-04-26T19:34:36.455Z,100091.63
2023-04-26T19:37:09.495Z,100095.47
2023-04-26T19:39:42.364Z,100094.75
2023-04-26T19:42:16.724Z,100094.13
2023-04-26T19:44:49.566Z,100093.53
2023-04-26T19:47:22.938Z,100096.41
2023-04-26T19:49:57.679Z,100094.94
2023-04-26T19:52:30.553Z,100095.16
2023-04-26T19:55:03.683Z,100098.91
2023-04-26T19:57:37.994Z,100097.38
2023-04-26T20:00:12.059Z,100100.38
2023-04-26T20:02:46.926Z,100097.03
2023-04-26T20:05:19.855Z,100098.09
2023-04-26T20:07:52.723Z,100104.44
2023-04-26T20:10:25.583Z,100104.63
2023-04-26T20:13:00.712Z,100103.97
2023-04-26T20:15:34.149Z,100114.81
2023-04-26T20:18:07.456Z,100106.16
2023-04-26T20:20:40.379Z,100108.97
2023-04-26T20:23:13.380Z,100111.78
2023-04-26T20:25:49.205Z,100114.69
2023-04-26T20:28:24.416Z,100111.19
2023-04-26T20:30:59.542Z,100114.91
2023-04-26T20:33:32.464Z,100114.09
2023-04-26T20:36:05.861Z,100111.50
2023-04-26T20:38:41.260Z,100122.25
2023-04-26T20:41:14.315Z,100123.22
2023-04-26T20:43:48.532Z,100119.88
2023-04-26T20:46:21.842Z,100127.03
2023-04-26T20:48:55.054Z,100120.94
2023-04-26T20:51:33.579Z,100129.88
2023-04-26T20:54:06.537Z,100129.09
2023-04-26T20:56:39.501Z,100130.94
2023-04-26T20:59:13.940Z,100123.13
2023-04-26T21:01:46.911Z,100133.84
2023-04-26T21:04:20.020Z,100133.94
2023-04-26T21:06:53.361Z,100134.03
2023-04-26T21:09:26.748Z,100141.28
2023-04-26T21:11:59.592Z,100141.38
2023-04-26T21:14:33.885Z,100138.84
2023-04-26T21:17:06.861Z,100143.31
2023-04-26T21:19:39.729Z,100154.00
2023-04-26T21:22:12.575Z,100147.03
2023-04-26T21:24:45.494Z,100155.03
2023-04-26T21:27:18.700Z,100152.47
2023-04-26T21:29:52.860Z,100153.41
2023-04-26T21:32:25.792Z,100156.16
2023-04-26T21:34:58.665Z,100156.25
2023-04-26T21:37:31.502Z,100161.66
2023-04-26T21:40:05.012Z,100165.25
2023-04-26T21:42:37.830Z,100161.75
2023-04-26T21:45:13.272Z,100168.03
2023-04-26T21:47:46.253Z,100165.47
2023-04-26T21:50:19.419Z,100169.88
2023-04-26T21:52:52.367Z,100170.81
2023-04-26T21:55:25.458Z,100172.63
2023-04-26T21:57:58.274Z,100171.78
2023-04-26T22:00:32.729Z,100173.56
2023-04-26T22:03:05.871Z,100171.81
2023-04-26T22:05:38.795Z,100177.06
2023-04-26T22:08:11.699Z,100180.63
2023-04-26T22:10:44.538Z,100177.13
2023-04-26T22:13:17.409Z,100183.34
2023-04-26T22:15:51.836Z,100186.06
2023-04-26T22:18:25.902Z,100190.59
2023-04-26T22:20:58.763Z,100191.59
2023-04-26T22:23:32.062Z,100188.13
2023-04-26T22:26:04.949Z,100196.13
2023-04-26T22:28:37.832Z,100194.56
2023-04-26T22:31:12.050Z,100200.81
2023-04-26T22:33:45.058Z,100207.97
2023-04-26T22:36:18.017Z,100212.50
2023-04-26T22:38:51.189Z,100207.28
2023-04-26T22:41:24.048Z,100211.78
2023-04-26T22:43:56.854Z,100207.41
2023-04-26T22:46:31.222Z,100211.97
2023-04-26T22:49:04.176Z,100214.66
2023-04-26T22:51:36.990Z,100219.16
2023-04-26T22:54:09.856Z,100218.34
2023-04-26T22:56:42.700Z,100214.03
2023-04-26T22:59:15.492Z,100224.66
2023-04-26T23:01:49.746Z,100225.56
2023-04-26T23:04:22.709Z,100230.91
2023-04-26T23:06:55.853Z,100231.78
2023-04-26T23:09:28.689Z,100234.47
2023-04-26T23:12:02.326Z,100238.94
2023-04-26T23:14:35.348Z,100232.81
2023-04-26T23:17:12.019Z,100233.69
2023-04-26T23:19:44.928Z,100241.69
2023-04-26T23:22:17.717Z,100237.28
2023-04-26T23:24:50.565Z,100233.81
2023-04-26T23:27:24.794Z,100237.41
2023-04-26T23:29:59.438Z,100237.44
2023-04-26T23:32:33.646Z,100238.38
2023-04-26T23:35:07.664Z,100243.69
2023-04-26T23:37:40.306Z,100238.97
2023-04-26T23:40:14.129Z,100240.16
2023-04-26T23:42:46.817Z,100243.44
2023-04-26T23:45:20.198Z,100238.50
2023-04-26T23:47:54.904Z,100245.66
2023-04-26T23:50:36.037Z,100245.66
2023-04-26T23:53:09.293Z,100247.53
2023-04-26T23:55:43.922Z,100245.78
2023-04-26T23:58:19.281Z,100250.25
